Terminal Aerodrome Forecast
Issued by NWS

Home | Current Version | Previous Version | Graphics & Text | Print | Product List | Glossary On
Versions: 1 2 3 4 5 6 7 8 9 10 11 12 13
274
FTUS43 KFGF 030520
TAFBJI
TAF
KBJI 030520Z 0306/0406 VRB06KT P6SM SCT250
     FM031200 26008KT P6SM SCT250
     FM031700 31018KT P6SM FEW250
     FM032300 34016KT P6SM SKC
     FM040200 33009KT P6SM SKC=

USA.gov is the U.S. government's official web portal to all federal, state and local government web resources and services.